sensor_id;sensor_type;location;lat;lon;timestamp;P1;durP1;ratioP1;P2;durP2;ratioP2
20421;SDS011;10370;53.102;18.034;2022-12-24T00:00:35;117.97;;;40.80;;
20421;SDS011;10370;53.102;18.034;2022-12-24T00:05:56;149.67;;;47.77;;
20421;SDS011;10370;53.102;18.034;2022-12-24T00:11:17;113.00;;;40.27;;
20421;SDS011;10370;53.102;18.034;2022-12-24T00:16:39;102.03;;;37.20;;
20421;SDS011;10370;53.102;18.034;2022-12-24T00:22:00;108.97;;;39.63;;
20421;SDS011;10370;53.102;18.034;2022-12-24T00:27:21;98.30;;;36.73;;
20421;SDS011;10370;53.102;18.034;2022-12-24T00:32:42;98.00;;;34.90;;
20421;SDS011;10370;53.102;18.034;2022-12-24T00:38:04;81.23;;;31.47;;
20421;SDS011;10370;53.102;18.034;2022-12-24T00:43:27;86.07;;;30.97;;
20421;SDS011;10370;53.102;18.034;2022-12-24T00:48:49;90.90;;;30.97;;
20421;SDS011;10370;53.102;18.034;2022-12-24T00:54:10;96.50;;;34.00;;
20421;SDS011;10370;53.102;18.034;2022-12-24T01:04:52;90.37;;;32.00;;
20421;SDS011;10370;53.102;18.034;2022-12-24T01:22:48;83.87;;;30.10;;
20421;SDS011;10370;53.102;18.034;2022-12-24T01:28:09;75.63;;;26.20;;
20421;SDS011;10370;53.102;18.034;2022-12-24T01:33:30;70.53;;;24.57;;
20421;SDS011;10370;53.102;18.034;2022-12-24T02:06:39;52.00;;;20.53;;
20421;SDS011;10370;53.102;18.034;2022-12-24T02:12:00;47.83;;;17.60;;
20421;SDS011;10370;53.102;18.034;2022-12-24T02:34:24;55.43;;;20.70;;
20421;SDS011;10370;53.102;18.034;2022-12-24T02:40:14;58.20;;;22.63;;
20421;SDS011;10370;53.102;18.034;2022-12-24T02:45:59;50.90;;;20.40;;
20421;SDS011;10370;53.102;18.034;2022-12-24T03:13:22;43.87;;;18.67;;
20421;SDS011;10370;53.102;18.034;2022-12-24T03:18:45;50.30;;;19.03;;
20421;SDS011;10370;53.102;18.034;2022-12-24T03:24:29;45.03;;;17.73;;
20421;SDS011;10370;53.102;18.034;2022-12-24T03:29:50;36.87;;;16.37;;
20421;SDS011;10370;53.102;18.034;2022-12-24T03:35:12;39.70;;;16.07;;
20421;SDS011;10370;53.102;18.034;2022-12-24T03:45:53;45.67;;;18.33;;
20421;SDS011;10370;53.102;18.034;2022-12-24T03:51:19;40.53;;;16.80;;
20421;SDS011;10370;53.102;18.034;2022-12-24T03:56:41;39.83;;;16.90;;
20421;SDS011;10370;53.102;18.034;2022-12-24T04:02:03;50.00;;;21.60;;
20421;SDS011;10370;53.102;18.034;2022-12-24T04:07:24;47.40;;;20.10;;
20421;SDS011;10370;53.102;18.034;2022-12-24T04:12:45;56.47;;;23.83;;
20421;SDS011;10370;53.102;18.034;2022-12-24T04:18:06;54.47;;;24.77;;
20421;SDS011;10370;53.102;18.034;2022-12-24T04:23:29;55.37;;;22.50;;
20421;SDS011;10370;53.102;18.034;2022-12-24T04:28:51;56.83;;;24.53;;
20421;SDS011;10370;53.102;18.034;2022-12-24T04:34:13;50.37;;;21.70;;
20421;SDS011;10370;53.102;18.034;2022-12-24T04:39:34;46.00;;;20.40;;
20421;SDS011;10370;53.102;18.034;2022-12-24T04:44:55;44.30;;;20.27;;
20421;SDS011;10370;53.102;18.034;2022-12-24T04:50:16;43.37;;;22.03;;
20421;SDS011;10370;53.102;18.034;2022-12-24T04:55:37;41.80;;;19.17;;
20421;SDS011;10370;53.102;18.034;2022-12-24T05:01:01;42.07;;;18.20;;
20421;SDS011;10370;53.102;18.034;2022-12-24T05:06:25;36.60;;;17.70;;
20421;SDS011;10370;53.102;18.034;2022-12-24T05:17:09;70.63;;;27.83;;
20421;SDS011;10370;53.102;18.034;2022-12-24T05:22:30;39.77;;;18.83;;
20421;SDS011;10370;53.102;18.034;2022-12-24T05:28:09;35.07;;;16.67;;
20421;SDS011;10370;53.102;18.034;2022-12-24T05:38:51;36.63;;;17.03;;
20421;SDS011;10370;53.102;18.034;2022-12-24T05:49:55;56.00;;;25.47;;
20421;SDS011;10370;53.102;18.034;2022-12-24T05:55:24;58.33;;;25.90;;
20421;SDS011;10370;53.102;18.034;2022-12-24T06:00:48;57.83;;;26.80;;
20421;SDS011;10370;53.102;18.034;2022-12-24T06:06:13;68.10;;;27.77;;
20421;SDS011;10370;53.102;18.034;2022-12-24T06:11:38;58.43;;;25.83;;
20421;SDS011;10370;53.102;18.034;2022-12-24T06:16:59;52.23;;;22.77;;
20421;SDS011;10370;53.102;18.034;2022-12-24T08:00:08;35.50;;;14.93;;
20421;SDS011;10370;53.102;18.034;2022-12-24T08:11:02;39.47;;;17.83;;
20421;SDS011;10370;53.102;18.034;2022-12-24T08:16:24;45.30;;;19.77;;
20421;SDS011;10370;53.102;18.034;2022-12-24T08:21:45;53.80;;;25.83;;
20421;SDS011;10370;53.102;18.034;2022-12-24T08:27:07;54.93;;;25.20;;
20421;SDS011;10370;53.102;18.034;2022-12-24T08:32:28;50.50;;;23.57;;
20421;SDS011;10370;53.102;18.034;2022-12-24T08:48:42;43.73;;;20.17;;
20421;SDS011;10370;53.102;18.034;2022-12-24T08:54:03;41.70;;;19.53;;
20421;SDS011;10370;53.102;18.034;2022-12-24T08:59:24;41.30;;;18.17;;
20421;SDS011;10370;53.102;18.034;2022-12-24T09:22:11;37.70;;;15.90;;
20421;SDS011;10370;53.102;18.034;2022-12-24T09:45:36;35.70;;;17.17;;
20421;SDS011;10370;53.102;18.034;2022-12-24T09:51:07;43.80;;;19.97;;
20421;SDS011;10370;53.102;18.034;2022-12-24T10:27:13;44.53;;;20.33;;
20421;SDS011;10370;53.102;18.034;2022-12-24T10:38:37;46.47;;;19.77;;
20421;SDS011;10370;53.102;18.034;2022-12-24T11:05:57;45.07;;;20.63;;
20421;SDS011;10370;53.102;18.034;2022-12-24T11:11:18;41.70;;;19.20;;
20421;SDS011;10370;53.102;18.034;2022-12-24T11:16:46;44.90;;;20.37;;
20421;SDS011;10370;53.102;18.034;2022-12-24T11:22:17;39.27;;;19.30;;
20421;SDS011;10370;53.102;18.034;2022-12-24T11:27:43;39.33;;;19.53;;
20421;SDS011;10370;53.102;18.034;2022-12-24T11:38:35;53.20;;;24.30;;
20421;SDS011;10370;53.102;18.034;2022-12-24T11:44:00;55.80;;;27.10;;
20421;SDS011;10370;53.102;18.034;2022-12-24T11:49:28;51.53;;;24.10;;
20421;SDS011;10370;53.102;18.034;2022-12-24T12:00:18;50.87;;;23.70;;
20421;SDS011;10370;53.102;18.034;2022-12-24T12:05:39;48.90;;;23.63;;
20421;SDS011;10370;53.102;18.034;2022-12-24T12:11:00;44.47;;;21.70;;
20421;SDS011;10370;53.102;18.034;2022-12-24T12:22:22;51.60;;;21.67;;
20421;SDS011;10370;53.102;18.034;2022-12-24T12:27:50;49.70;;;23.87;;
20421;SDS011;10370;53.102;18.034;2022-12-24T12:33:31;48.80;;;21.97;;
20421;SDS011;10370;53.102;18.034;2022-12-24T12:39:02;51.87;;;22.27;;
20421;SDS011;10370;53.102;18.034;2022-12-24T13:07:39;41.87;;;21.10;;
20421;SDS011;10370;53.102;18.034;2022-12-24T13:24:54;45.27;;;20.43;;
20421;SDS011;10370;53.102;18.034;2022-12-24T13:35:37;37.20;;;18.50;;
20421;SDS011;10370;53.102;18.034;2022-12-24T13:52:37;48.40;;;22.70;;
20421;SDS011;10370;53.102;18.034;2022-12-24T13:58:47;55.00;;;26.83;;
20421;SDS011;10370;53.102;18.034;2022-12-24T14:04:19;61.17;;;28.60;;
20421;SDS011;10370;53.102;18.034;2022-12-24T14:21:04;64.63;;;30.27;;
20421;SDS011;10370;53.102;18.034;2022-12-24T14:26:27;73.77;;;31.23;;
20421;SDS011;10370;53.102;18.034;2022-12-24T14:32:11;69.73;;;33.37;;
20421;SDS011;10370;53.102;18.034;2022-12-24T14:37:35;59.60;;;29.17;;
20421;SDS011;10370;53.102;18.034;2022-12-24T14:54:39;75.73;;;34.27;;
20421;SDS011;10370;53.102;18.034;2022-12-24T15:00:02;57.77;;;28.37;;
20421;SDS011;10370;53.102;18.034;2022-12-24T15:18:03;71.37;;;32.87;;
20421;SDS011;10370;53.102;18.034;2022-12-24T15:23:27;84.53;;;35.80;;
20421;SDS011;10370;53.102;18.034;2022-12-24T15:29:12;78.70;;;34.77;;
20421;SDS011;10370;53.102;18.034;2022-12-24T15:34:47;99.40;;;45.27;;
20421;SDS011;10370;53.102;18.034;2022-12-24T15:40:30;101.80;;;47.97;;
20421;SDS011;10370;53.102;18.034;2022-12-24T15:45:56;81.07;;;34.50;;
20421;SDS011;10370;53.102;18.034;2022-12-24T15:51:22;82.43;;;36.63;;
20421;SDS011;10370;53.102;18.034;2022-12-24T15:56:46;76.53;;;35.83;;
20421;SDS011;10370;53.102;18.034;2022-12-24T16:02:35;75.30;;;35.47;;
20421;SDS011;10370;53.102;18.034;2022-12-24T16:07:59;84.93;;;40.70;;
20421;SDS011;10370;53.102;18.034;2022-12-24T16:13:34;106.27;;;46.93;;
20421;SDS011;10370;53.102;18.034;2022-12-24T16:18:58;118.87;;;49.73;;
20421;SDS011;10370;53.102;18.034;2022-12-24T16:29:41;126.80;;;50.37;;
20421;SDS011;10370;53.102;18.034;2022-12-24T16:51:03;92.10;;;38.63;;
20421;SDS011;10370;53.102;18.034;2022-12-24T17:02:16;89.13;;;39.33;;
20421;SDS011;10370;53.102;18.034;2022-12-24T17:07:39;91.60;;;38.83;;
20421;SDS011;10370;53.102;18.034;2022-12-24T17:13:02;93.33;;;39.30;;
20421;SDS011;10370;53.102;18.034;2022-12-24T17:18:23;98.50;;;38.93;;
20421;SDS011;10370;53.102;18.034;2022-12-24T17:23:44;103.83;;;39.93;;
20421;SDS011;10370;53.102;18.034;2022-12-24T17:29:05;106.90;;;43.57;;
20421;SDS011;10370;53.102;18.034;2022-12-24T17:34:27;123.00;;;44.83;;
20421;SDS011;10370;53.102;18.034;2022-12-24T17:39:47;110.23;;;43.23;;
20421;SDS011;10370;53.102;18.034;2022-12-24T17:45:09;138.20;;;48.07;;
20421;SDS011;10370;53.102;18.034;2022-12-24T17:50:30;129.10;;;47.73;;
20421;SDS011;10370;53.102;18.034;2022-12-24T17:55:51;147.10;;;57.83;;
20421;SDS011;10370;53.102;18.034;2022-12-24T18:01:19;99.70;;;41.90;;
20421;SDS011;10370;53.102;18.034;2022-12-24T19:11:24;101.43;;;42.53;;
20421;SDS011;10370;53.102;18.034;2022-12-24T19:29:09;101.27;;;44.20;;
20421;SDS011;10370;53.102;18.034;2022-12-24T20:22:34;174.00;;;55.93;;
20421;SDS011;10370;53.102;18.034;2022-12-24T20:27:55;171.50;;;60.33;;
20421;SDS011;10370;53.102;18.034;2022-12-24T20:33:16;160.73;;;59.90;;
20421;SDS011;10370;53.102;18.034;2022-12-24T20:50:13;141.40;;;57.53;;
20421;SDS011;10370;53.102;18.034;2022-12-24T20:55:34;128.50;;;53.17;;
20421;SDS011;10370;53.102;18.034;2022-12-24T21:00:55;123.57;;;51.97;;
20421;SDS011;10370;53.102;18.034;2022-12-24T21:06:16;136.77;;;55.93;;
20421;SDS011;10370;53.102;18.034;2022-12-24T21:59:40;114.60;;;46.43;;
20421;SDS011;10370;53.102;18.034;2022-12-24T22:05:01;114.40;;;46.63;;
20421;SDS011;10370;53.102;18.034;2022-12-24T22:10:22;115.87;;;47.83;;
20421;SDS011;10370;53.102;18.034;2022-12-24T22:21:22;122.87;;;46.97;;
20421;SDS011;10370;53.102;18.034;2022-12-24T22:26:44;112.00;;;45.03;;
20421;SDS011;10370;53.102;18.034;2022-12-24T22:32:05;124.57;;;47.00;;
20421;SDS011;10370;53.102;18.034;2022-12-24T22:37:26;120.47;;;47.67;;
20421;SDS011;10370;53.102;18.034;2022-12-24T22:42:48;127.13;;;51.93;;
20421;SDS011;10370;53.102;18.034;2022-12-24T22:48:09;128.37;;;49.63;;
20421;SDS011;10370;53.102;18.034;2022-12-24T22:53:30;127.00;;;50.17;;
20421;SDS011;10370;53.102;18.034;2022-12-24T22:58:55;129.33;;;49.07;;
20421;SDS011;10370;53.102;18.034;2022-12-24T23:04:16;135.13;;;52.43;;
20421;SDS011;10370;53.102;18.034;2022-12-24T23:09:37;135.03;;;52.03;;
20421;SDS011;10370;53.102;18.034;2022-12-24T23:14:59;137.77;;;53.37;;
20421;SDS011;10370;53.102;18.034;2022-12-24T23:20:20;140.77;;;52.97;;
20421;SDS011;10370;53.102;18.034;2022-12-24T23:25:41;146.17;;;55.43;;
20421;SDS011;10370;53.102;18.034;2022-12-24T23:31:02;133.63;;;52.23;;
20421;SDS011;10370;53.102;18.034;2022-12-24T23:36:24;141.17;;;51.73;;
20421;SDS011;10370;53.102;18.034;2022-12-24T23:41:45;148.03;;;53.87;;
20421;SDS011;10370;53.102;18.034;2022-12-24T23:47:06;146.30;;;53.67;;
20421;SDS011;10370;53.102;18.034;2022-12-24T23:52:24;134.77;;;52.47;;
20421;SDS011;10370;53.102;18.034;2022-12-24T23:57:45;143.47;;;51.13;;
